sensor_id;sensor_type;location;lat;lon;timestamp;pressure;altitude;pressure_sealevel;temperature;humidity
32251;BME280;41295;48.518;9.206;2023-07-13T00:00:18;97200.69;;;22.58;58.54
32251;BME280;41295;48.518;9.206;2023-07-13T00:02:20;97195.94;;;22.62;57.19
32251;BME280;41295;48.518;9.206;2023-07-13T00:04:24;97200.31;;;22.63;58.45
32251;BME280;41295;48.518;9.206;2023-07-13T00:06:27;97198.38;;;22.65;57.39
32251;BME280;41295;48.518;9.206;2023-07-13T00:08:34;97183.97;;;22.77;57.93
32251;BME280;41295;48.518;9.206;2023-07-13T00:10:41;97180.63;;;22.75;56.48
32251;BME280;41295;48.518;9.206;2023-07-13T00:12:44;97178.25;;;22.72;57.44
32251;BME280;41295;48.518;9.206;2023-07-13T00:14:47;97183.13;;;22.67;56.10
32251;BME280;41295;48.518;9.206;2023-07-13T00:16:50;97188.84;;;22.62;56.49
32251;BME280;41295;48.518;9.206;2023-07-13T00:18:53;97193.25;;;22.52;56.08
32251;BME280;41295;48.518;9.206;2023-07-13T00:20:55;97197.28;;;22.36;56.31
32251;BME280;41295;48.518;9.206;2023-07-13T00:23:06;97191.94;;;22.26;55.81
32251;BME280;41295;48.518;9.206;2023-07-13T00:25:10;97194.41;;;22.18;56.48
32251;BME280;41295;48.518;9.206;2023-07-13T00:27:17;97195.03;;;22.00;58.25
32251;BME280;41295;48.518;9.206;2023-07-13T00:29:20;97190.59;;;22.10;56.91
32251;BME280;41295;48.518;9.206;2023-07-13T00:31:22;97183.69;;;21.98;57.67
32251;BME280;41295;48.518;9.206;2023-07-13T00:33:26;97193.88;;;21.93;57.69
32251;BME280;41295;48.518;9.206;2023-07-13T00:35:30;97184.25;;;21.92;58.77
32251;BME280;41295;48.518;9.206;2023-07-13T00:37:33;97186.44;;;21.86;59.64
32251;BME280;41295;48.518;9.206;2023-07-13T00:39:37;97191.94;;;21.95;60.21
32251;BME280;41295;48.518;9.206;2023-07-13T00:41:40;97196.28;;;21.96;60.70
32251;BME280;41295;48.518;9.206;2023-07-13T00:43:44;97195.56;;;21.94;60.58
32251;BME280;41295;48.518;9.206;2023-07-13T00:46:17;97203.56;;;22.04;60.53
32251;BME280;41295;48.518;9.206;2023-07-13T00:48:21;97195.75;;;22.02;59.70
32251;BME280;41295;48.518;9.206;2023-07-13T00:50:26;97191.78;;;21.96;59.03
32251;BME280;41295;48.518;9.206;2023-07-13T00:52:29;97195.13;;;21.89;59.23
32251;BME280;41295;48.518;9.206;2023-07-13T00:54:34;97197.69;;;21.79;59.56
32251;BME280;41295;48.518;9.206;2023-07-13T00:56:39;97199.75;;;21.75;62.19
32251;BME280;41295;48.518;9.206;2023-07-13T00:58:44;97194.44;;;21.75;60.67
32251;BME280;41295;48.518;9.206;2023-07-13T01:00:48;97205.63;;;21.79;60.22
32251;BME280;41295;48.518;9.206;2023-07-13T01:02:52;97209.03;;;21.81;60.27
32251;BME280;41295;48.518;9.206;2023-07-13T01:04:56;97212.56;;;21.70;60.60
32251;BME280;41295;48.518;9.206;2023-07-13T01:06:59;97216.72;;;21.62;60.73
32251;BME280;41295;48.518;9.206;2023-07-13T01:09:03;97210.50;;;21.52;61.20
32251;BME280;41295;48.518;9.206;2023-07-13T01:11:05;97205.91;;;21.54;61.59
32251;BME280;41295;48.518;9.206;2023-07-13T01:13:10;97211.97;;;21.45;61.73
32251;BME280;41295;48.518;9.206;2023-07-13T01:15:38;97209.06;;;21.48;61.33
32251;BME280;41295;48.518;9.206;2023-07-13T01:17:41;97206.28;;;21.49;60.79
32251;BME280;41295;48.518;9.206;2023-07-13T01:19:46;97207.00;;;21.51;61.11
32251;BME280;41295;48.518;9.206;2023-07-13T01:21:52;97207.25;;;21.48;61.28
32251;BME280;41295;48.518;9.206;2023-07-13T01:23:55;97197.38;;;21.50;60.36
32251;BME280;41295;48.518;9.206;2023-07-13T01:25:58;97200.59;;;21.54;61.72
32251;BME280;41295;48.518;9.206;2023-07-13T01:28:01;97202.03;;;21.58;61.13
32251;BME280;41295;48.518;9.206;2023-07-13T01:30:05;97203.53;;;21.51;61.47
32251;BME280;41295;48.518;9.206;2023-07-13T01:32:09;97198.09;;;21.53;60.91
32251;BME280;41295;48.518;9.206;2023-07-13T01:34:13;97199.00;;;21.63;61.23
32251;BME280;41295;48.518;9.206;2023-07-13T01:36:15;97204.47;;;21.71;61.79
32251;BME280;41295;48.518;9.206;2023-07-13T01:38:21;97204.34;;;21.73;60.60
32251;BME280;41295;48.518;9.206;2023-07-13T01:40:23;97203.06;;;21.67;60.13
32251;BME280;41295;48.518;9.206;2023-07-13T01:42:27;97207.25;;;21.70;60.29
32251;BME280;41295;48.518;9.206;2023-07-13T01:44:30;97210.44;;;21.63;60.57
32251;BME280;41295;48.518;9.206;2023-07-13T01:46:33;97216.97;;;21.59;60.46
32251;BME280;41295;48.518;9.206;2023-07-13T01:48:35;97219.03;;;21.56;58.71
32251;BME280;41295;48.518;9.206;2023-07-13T01:50:38;97222.91;;;21.51;60.88
32251;BME280;41295;48.518;9.206;2023-07-13T01:52:41;97223.03;;;21.50;58.25
32251;BME280;41295;48.518;9.206;2023-07-13T01:54:45;97230.06;;;21.51;59.36
32251;BME280;41295;48.518;9.206;2023-07-13T01:56:49;97222.47;;;21.46;60.72
32251;BME280;41295;48.518;9.206;2023-07-13T01:58:52;97220.38;;;21.50;60.12
32251;BME280;41295;48.518;9.206;2023-07-13T02:00:55;97221.38;;;21.49;61.10
32251;BME280;41295;48.518;9.206;2023-07-13T02:02:57;97215.50;;;21.67;59.48
32251;BME280;41295;48.518;9.206;2023-07-13T02:05:00;97220.97;;;21.54;59.26
32251;BME280;41295;48.518;9.206;2023-07-13T02:07:02;97218.91;;;21.57;59.22
32251;BME280;41295;48.518;9.206;2023-07-13T02:09:05;97223.81;;;21.41;59.63
32251;BME280;41295;48.518;9.206;2023-07-13T02:11:09;97222.25;;;21.38;60.05
32251;BME280;41295;48.518;9.206;2023-07-13T02:13:12;97227.84;;;21.35;59.85
32251;BME280;41295;48.518;9.206;2023-07-13T02:15:14;97231.44;;;21.34;59.98
32251;BME280;41295;48.518;9.206;2023-07-13T02:17:17;97225.91;;;21.37;60.16
32251;BME280;41295;48.518;9.206;2023-07-13T02:19:20;97227.84;;;21.35;60.36
32251;BME280;41295;48.518;9.206;2023-07-13T02:21:23;97234.22;;;21.32;60.03
32251;BME280;41295;48.518;9.206;2023-07-13T02:23:26;97230.78;;;21.20;60.23
32251;BME280;41295;48.518;9.206;2023-07-13T02:25:28;97227.00;;;21.23;60.20
32251;BME280;41295;48.518;9.206;2023-07-13T02:27:33;97227.53;;;21.17;60.07
32251;BME280;41295;48.518;9.206;2023-07-13T02:29:35;97225.38;;;21.10;60.59
32251;BME280;41295;48.518;9.206;2023-07-13T02:31:38;97220.91;;;21.11;60.66
32251;BME280;41295;48.518;9.206;2023-07-13T02:33:41;97226.97;;;21.01;60.91
32251;BME280;41295;48.518;9.206;2023-07-13T02:35:44;97226.38;;;20.98;60.70
32251;BME280;41295;48.518;9.206;2023-07-13T02:37:47;97232.03;;;20.93;60.68
32251;BME280;41295;48.518;9.206;2023-07-13T02:39:49;97231.81;;;20.85;61.01
32251;BME280;41295;48.518;9.206;2023-07-13T02:41:51;97226.53;;;20.85;61.09
32251;BME280;41295;48.518;9.206;2023-07-13T02:43:57;97227.84;;;20.79;61.44
32251;BME280;41295;48.518;9.206;2023-07-13T02:46:05;97228.22;;;20.74;61.55
32251;BME280;41295;48.518;9.206;2023-07-13T02:48:09;97231.56;;;20.76;61.33
32251;BME280;41295;48.518;9.206;2023-07-13T02:50:12;97231.75;;;20.63;61.75
32251;BME280;41295;48.518;9.206;2023-07-13T02:52:15;97225.00;;;20.71;61.14
32251;BME280;41295;48.518;9.206;2023-07-13T02:54:17;97228.13;;;20.64;61.54
32251;BME280;41295;48.518;9.206;2023-07-13T02:56:22;97221.97;;;20.64;61.91
32251;BME280;41295;48.518;9.206;2023-07-13T02:58:25;97221.44;;;20.93;60.13
32251;BME280;41295;48.518;9.206;2023-07-13T03:00:29;97229.78;;;20.77;60.48
32251;BME280;41295;48.518;9.206;2023-07-13T03:02:32;97230.16;;;20.72;60.69
32251;BME280;41295;48.518;9.206;2023-07-13T03:04:36;97227.63;;;20.71;61.07
32251;BME280;41295;48.518;9.206;2023-07-13T03:06:38;97230.78;;;20.53;60.76
32251;BME280;41295;48.518;9.206;2023-07-13T03:08:41;97226.56;;;20.39;61.58
32251;BME280;41295;48.518;9.206;2023-07-13T03:10:44;97236.81;;;20.43;61.10
32251;BME280;41295;48.518;9.206;2023-07-13T03:12:46;97233.69;;;20.27;61.41
32251;BME280;41295;48.518;9.206;2023-07-13T03:14:49;97235.38;;;20.28;61.92
32251;BME280;41295;48.518;9.206;2023-07-13T03:16:53;97237.63;;;20.21;62.30
32251;BME280;41295;48.518;9.206;2023-07-13T03:18:56;97230.56;;;20.22;62.89
32251;BME280;41295;48.518;9.206;2023-07-13T03:20:59;97228.72;;;20.34;62.36
32251;BME280;41295;48.518;9.206;2023-07-13T03:23:01;97235.97;;;20.20;62.54
32251;BME280;41295;48.518;9.206;2023-07-13T03:25:05;97235.00;;;20.21;62.60
32251;BME280;41295;48.518;9.206;2023-07-13T03:27:08;97234.75;;;20.13;62.61
32251;BME280;41295;48.518;9.206;2023-07-13T03:29:12;97225.84;;;20.14;63.47
32251;BME280;41295;48.518;9.206;2023-07-13T03:31:17;97224.53;;;20.19;63.07
32251;BME280;41295;48.518;9.206;2023-07-13T03:33:21;97232.56;;;20.06;63.53
32251;BME280;41295;48.518;9.206;2023-07-13T03:35:23;97234.09;;;19.98;64.26
32251;BME280;41295;48.518;9.206;2023-07-13T03:37:26;97238.44;;;19.99;64.42
32251;BME280;41295;48.518;9.206;2023-07-13T03:39:28;97231.13;;;20.02;64.83
32251;BME280;41295;48.518;9.206;2023-07-13T03:41:31;97240.50;;;20.06;64.65
32251;BME280;41295;48.518;9.206;2023-07-13T03:43:34;97240.28;;;20.10;64.35
32251;BME280;41295;48.518;9.206;2023-07-13T03:45:37;97239.44;;;20.09;64.11
32251;BME280;41295;48.518;9.206;2023-07-13T03:47:40;97243.75;;;20.10;64.35
32251;BME280;41295;48.518;9.206;2023-07-13T03:49:44;97242.44;;;20.39;62.63
32251;BME280;41295;48.518;9.206;2023-07-13T03:51:47;97242.00;;;20.22;63.84
32251;BME280;41295;48.518;9.206;2023-07-13T03:53:53;97243.31;;;20.16;64.48
32251;BME280;41295;48.518;9.206;2023-07-13T03:55:55;97243.31;;;20.16;64.51
32251;BME280;41295;48.518;9.206;2023-07-13T03:57:59;97252.91;;;20.17;64.44
32251;BME280;41295;48.518;9.206;2023-07-13T04:00:03;97251.13;;;20.18;64.50
32251;BME280;41295;48.518;9.206;2023-07-13T04:02:07;97259.66;;;20.22;63.94
32251;BME280;41295;48.518;9.206;2023-07-13T04:04:10;97258.34;;;20.16;63.75
32251;BME280;41295;48.518;9.206;2023-07-13T04:06:18;97260.16;;;20.15;64.23
32251;BME280;41295;48.518;9.206;2023-07-13T04:08:22;97263.28;;;20.21;63.47
32251;BME280;41295;48.518;9.206;2023-07-13T04:10:24;97265.81;;;20.22;64.04
32251;BME280;41295;48.518;9.206;2023-07-13T04:12:27;97266.63;;;20.23;63.98
32251;BME280;41295;48.518;9.206;2023-07-13T04:14:31;97271.94;;;20.34;63.32
32251;BME280;41295;48.518;9.206;2023-07-13T04:16:34;97274.47;;;20.36;62.41
32251;BME280;41295;48.518;9.206;2023-07-13T04:18:37;97268.44;;;20.34;63.15
32251;BME280;41295;48.518;9.206;2023-07-13T04:20:38;97271.34;;;20.30;62.50
32251;BME280;41295;48.518;9.206;2023-07-13T04:22:42;97270.00;;;20.25;63.09
32251;BME280;41295;48.518;9.206;2023-07-13T04:24:45;97268.44;;;20.34;62.41
32251;BME280;41295;48.518;9.206;2023-07-13T04:26:48;97274.38;;;20.26;62.57
32251;BME280;41295;48.518;9.206;2023-07-13T04:28:51;97276.28;;;20.35;61.53
32251;BME280;41295;48.518;9.206;2023-07-13T04:30:54;97271.84;;;20.24;62.58
32251;BME280;41295;48.518;9.206;2023-07-13T04:32:57;97269.41;;;20.21;62.78
32251;BME280;41295;48.518;9.206;2023-07-13T04:35:00;97274.56;;;20.23;63.07
32251;BME280;41295;48.518;9.206;2023-07-13T04:37:03;97277.94;;;20.25;63.15
32251;BME280;41295;48.518;9.206;2023-07-13T04:39:07;97276.50;;;20.32;63.08
32251;BME280;41295;48.518;9.206;2023-07-13T04:41:11;97277.75;;;20.28;62.22
32251;BME280;41295;48.518;9.206;2023-07-13T04:43:13;97276.53;;;20.21;62.16
32251;BME280;41295;48.518;9.206;2023-07-13T04:45:15;97278.06;;;20.23;62.62
32251;BME280;41295;48.518;9.206;2023-07-13T04:47:18;97283.13;;;20.26;62.44
32251;BME280;41295;48.518;9.206;2023-07-13T04:49:21;97276.75;;;20.29;62.58
32251;BME280;41295;48.518;9.206;2023-07-13T04:51:24;97283.84;;;20.28;61.70
32251;BME280;41295;48.518;9.206;2023-07-13T04:53:28;97281.09;;;20.30;61.34
32251;BME280;41295;48.518;9.206;2023-07-13T04:55:32;97277.25;;;20.34;59.75
32251;BME280;41295;48.518;9.206;2023-07-13T04:57:35;97277.00;;;20.26;59.74
32251;BME280;41295;48.518;9.206;2023-07-13T04:59:38;97278.94;;;20.24;60.39
32251;BME280;41295;48.518;9.206;2023-07-13T05:01:40;97272.06;;;20.21;60.93
32251;BME280;41295;48.518;9.206;2023-07-13T05:03:43;97277.75;;;20.28;59.94
32251;BME280;41295;48.518;9.206;2023-07-13T05:05:54;97283.84;;;20.28;60.81
32251;BME280;41295;48.518;9.206;2023-07-13T05:07:58;97285.69;;;20.28;60.13
32251;BME280;41295;48.518;9.206;2023-07-13T05:10:00;97289.28;;;20.38;60.55
32251;BME280;41295;48.518;9.206;2023-07-13T05:12:07;97296.00;;;20.42;58.36
32251;BME280;41295;48.518;9.206;2023-07-13T05:14:09;97294.72;;;20.37;58.50
32251;BME280;41295;48.518;9.206;2023-07-13T05:16:12;97300.81;;;20.37;60.26
32251;BME280;41295;48.518;9.206;2023-07-13T05:18:15;97302.03;;;20.45;60.89
32251;BME280;41295;48.518;9.206;2023-07-13T05:20:19;97305.03;;;20.51;61.12
32251;BME280;41295;48.518;9.206;2023-07-13T05:22:21;97314.81;;;20.62;60.72
32251;BME280;41295;48.518;9.206;2023-07-13T05:24:23;97315.41;;;20.66;60.69
32251;BME280;41295;48.518;9.206;2023-07-13T05:26:26;97319.84;;;20.77;60.65
32251;BME280;41295;48.518;9.206;2023-07-13T05:28:31;97315.88;;;20.83;60.19
32251;BME280;41295;48.518;9.206;2023-07-13T05:30:34;97316.47;;;20.86;60.22
32251;BME280;41295;48.518;9.206;2023-07-13T05:32:36;97316.97;;;20.91;59.94
32251;BME280;41295;48.518;9.206;2023-07-13T05:34:39;97328.91;;;20.97;59.64
32251;BME280;41295;48.518;9.206;2023-07-13T05:36:42;97329.75;;;20.98;59.34
32251;BME280;41295;48.518;9.206;2023-07-13T05:38:44;97324.69;;;20.95;58.72
32251;BME280;41295;48.518;9.206;2023-07-13T05:40:46;97325.16;;;21.00;58.25
32251;BME280;41295;48.518;9.206;2023-07-13T05:42:49;97327.81;;;21.00;58.20
32251;BME280;41295;48.518;9.206;2023-07-13T05:44:53;97328.28;;;21.05;58.49
32251;BME280;41295;48.518;9.206;2023-07-13T05:46:56;97332.25;;;21.11;57.96
32251;BME280;41295;48.518;9.206;2023-07-13T05:48:59;97330.31;;;21.13;57.35
32251;BME280;41295;48.518;9.206;2023-07-13T05:51:02;97334.91;;;21.11;57.87
32251;BME280;41295;48.518;9.206;2023-07-13T05:53:05;97335.38;;;21.16;57.19
32251;BME280;41295;48.518;9.206;2023-07-13T05:55:08;97325.88;;;21.13;58.22
32251;BME280;41295;48.518;9.206;2023-07-13T05:57:11;97329.22;;;21.27;58.55
32251;BME280;41295;48.518;9.206;2023-07-13T05:59:14;97329.69;;;21.32;58.14
32251;BME280;41295;48.518;9.206;2023-07-13T06:01:18;97328.94;;;21.42;58.38
32251;BME280;41295;48.518;9.206;2023-07-13T06:03:22;97344.84;;;21.42;58.23
32251;BME280;41295;48.518;9.206;2023-07-13T06:05:24;97356.06;;;21.34;57.59
32251;BME280;41295;48.518;9.206;2023-07-13T06:07:28;97353.53;;;21.32;57.83
32251;BME280;41295;48.518;9.206;2023-07-13T06:09:31;97349.28;;;21.41;57.60
32251;BME280;41295;48.518;9.206;2023-07-13T06:11:34;97358.84;;;21.32;57.60
32251;BME280;41295;48.518;9.206;2023-07-13T06:13:36;97351.75;;;21.33;57.49
32251;BME280;41295;48.518;9.206;2023-07-13T06:15:39;97351.09;;;21.41;57.68
32251;BME280;41295;48.518;9.206;2023-07-13T06:17:43;97357.38;;;21.39;58.92
32251;BME280;41295;48.518;9.206;2023-07-13T06:19:46;97351.81;;;21.43;58.15
32251;BME280;41295;48.518;9.206;2023-07-13T06:21:49;97364.59;;;21.49;58.12
32251;BME280;41295;48.518;9.206;2023-07-13T06:23:52;97358.97;;;21.42;55.83
32251;BME280;41295;48.518;9.206;2023-07-13T06:25:55;97359.28;;;21.49;56.60
32251;BME280;41295;48.518;9.206;2023-07-13T06:27:58;97364.72;;;21.47;55.13
32251;BME280;41295;48.518;9.206;2023-07-13T06:30:00;97366.66;;;21.34;55.74
32251;BME280;41295;48.518;9.206;2023-07-13T06:32:03;97365.25;;;21.30;55.91
32251;BME280;41295;48.518;9.206;2023-07-13T06:34:07;97362.47;;;21.20;55.34
32251;BME280;41295;48.518;9.206;2023-07-13T06:36:15;97354.91;;;21.15;55.85
32251;BME280;41295;48.518;9.206;2023-07-13T06:38:17;97359.50;;;21.13;56.17
32251;BME280;41295;48.518;9.206;2023-07-13T06:40:20;97363.22;;;21.22;55.98
32251;BME280;41295;48.518;9.206;2023-07-13T06:42:23;97362.41;;;21.10;55.84
32251;BME280;41295;48.518;9.206;2023-07-13T06:44:25;97362.00;;;21.03;56.18
32251;BME280;41295;48.518;9.206;2023-07-13T06:46:29;97372.75;;;21.01;55.68
32251;BME280;41295;48.518;9.206;2023-07-13T06:48:31;97373.13;;;21.08;55.03
32251;BME280;41295;48.518;9.206;2023-07-13T06:50:35;97372.88;;;21.00;54.60
32251;BME280;41295;48.518;9.206;2023-07-13T06:52:37;97373.13;;;20.97;53.04
32251;BME280;41295;48.518;9.206;2023-07-13T06:54:40;97378.91;;;21.02;52.12
32251;BME280;41295;48.518;9.206;2023-07-13T06:56:43;97381.78;;;20.99;52.08
32251;BME280;41295;48.518;9.206;2023-07-13T06:58:46;97382.28;;;21.04;52.16
32251;BME280;41295;48.518;9.206;2023-07-13T07:00:50;97374.41;;;21.14;52.34
32251;BME280;41295;48.518;9.206;2023-07-13T07:02:53;97368.03;;;21.17;50.93
32251;BME280;41295;48.518;9.206;2023-07-13T07:04:56;97369.50;;;21.21;49.98
32251;BME280;41295;48.518;9.206;2023-07-13T07:07:00;97372.47;;;21.27;48.72
32251;BME280;41295;48.518;9.206;2023-07-13T07:09:03;97377.66;;;21.29;49.18
32251;BME280;41295;48.518;9.206;2023-07-13T07:11:08;97380.19;;;21.31;48.55
32251;BME280;41295;48.518;9.206;2023-07-13T07:13:11;97374.75;;;21.32;48.55
32251;BME280;41295;48.518;9.206;2023-07-13T07:15:14;97373.03;;;21.43;47.18
32251;BME280;41295;48.518;9.206;2023-07-13T07:17:16;97372.09;;;21.44;47.36
32251;BME280;41295;48.518;9.206;2023-07-13T07:19:19;97375.56;;;21.44;47.22
32251;BME280;41295;48.518;9.206;2023-07-13T07:21:22;97383.28;;;21.47;46.86
32251;BME280;41295;48.518;9.206;2023-07-13T07:23:26;97389.41;;;21.48;46.58
32251;BME280;41295;48.518;9.206;2023-07-13T07:25:29;97386.31;;;21.43;46.85
32251;BME280;41295;48.518;9.206;2023-07-13T07:27:33;97385.00;;;21.37;47.16
32251;BME280;41295;48.518;9.206;2023-07-13T07:29:39;97376.47;;;21.33;46.65
32251;BME280;41295;48.518;9.206;2023-07-13T07:31:47;97376.34;;;21.35;46.50
32251;BME280;41295;48.518;9.206;2023-07-13T07:34:06;97374.28;;;21.38;47.01
32251;BME280;41295;48.518;9.206;2023-07-13T07:36:09;97378.81;;;21.48;46.82
32251;BME280;41295;48.518;9.206;2023-07-13T07:38:14;97371.16;;;21.66;45.24
32251;BME280;41295;48.518;9.206;2023-07-13T07:40:19;97382.97;;;21.73;44.65
32251;BME280;41295;48.518;9.206;2023-07-13T07:42:24;97380.66;;;21.80;45.06
32251;BME280;41295;48.518;9.206;2023-07-13T07:44:27;97378.03;;;21.80;45.16
32251;BME280;41295;48.518;9.206;2023-07-13T07:46:30;97386.69;;;21.82;45.07
32251;BME280;41295;48.518;9.206;2023-07-13T07:48:33;97386.44;;;21.85;44.34
32251;BME280;41295;48.518;9.206;2023-07-13T07:50:36;97380.91;;;21.89;43.49
32251;BME280;41295;48.518;9.206;2023-07-13T07:52:40;97390.28;;;21.93;42.79
32251;BME280;41295;48.518;9.206;2023-07-13T07:54:44;97394.19;;;21.89;42.38
32251;BME280;41295;48.518;9.206;2023-07-13T07:56:51;97393.13;;;21.80;42.43
32251;BME280;41295;48.518;9.206;2023-07-13T07:58:57;97390.94;;;21.73;42.21
32251;BME280;41295;48.518;9.206;2023-07-13T08:01:03;97393.25;;;21.67;42.85
32251;BME280;41295;48.518;9.206;2023-07-13T08:03:10;97392.38;;;21.66;43.27
32251;BME280;41295;48.518;9.206;2023-07-13T08:05:15;97391.06;;;21.72;43.47
32251;BME280;41295;48.518;9.206;2023-07-13T08:07:20;97395.16;;;21.76;43.68
32251;BME280;41295;48.518;9.206;2023-07-13T08:09:23;97384.28;;;21.79;42.91
32251;BME280;41295;48.518;9.206;2023-07-13T08:11:25;97388.16;;;21.86;42.60
32251;BME280;41295;48.518;9.206;2023-07-13T08:13:33;97390.41;;;21.91;43.26
32251;BME280;41295;48.518;9.206;2023-07-13T08:15:36;97386.16;;;22.00;43.01
32251;BME280;41295;48.518;9.206;2023-07-13T08:17:39;97385.84;;;22.15;43.19
32251;BME280;41295;48.518;9.206;2023-07-13T08:19:41;97395.81;;;22.22;42.95
32251;BME280;41295;48.518;9.206;2023-07-13T08:21:44;97386.94;;;22.12;42.01
32251;BME280;41295;48.518;9.206;2023-07-13T08:23:49;97386.94;;;22.12;42.09
32251;BME280;41295;48.518;9.206;2023-07-13T08:25:53;97390.38;;;22.03;41.83
32251;BME280;41295;48.518;9.206;2023-07-13T08:27:56;97388.31;;;22.06;42.32
32251;BME280;41295;48.518;9.206;2023-07-13T08:30:00;97387.50;;;22.16;42.42
32251;BME280;41295;48.518;9.206;2023-07-13T08:32:04;97390.75;;;22.19;42.40
32251;BME280;41295;48.518;9.206;2023-07-13T08:34:08;97385.06;;;22.24;42.27
32251;BME280;41295;48.518;9.206;2023-07-13T08:36:15;97382.16;;;22.27;42.34
32251;BME280;41295;48.518;9.206;2023-07-13T08:38:18;97386.25;;;22.31;42.44
32251;BME280;41295;48.518;9.206;2023-07-13T08:40:24;97392.97;;;22.35;42.25
32251;BME280;41295;48.518;9.206;2023-07-13T08:42:33;97383.91;;;22.38;41.73
32251;BME280;41295;48.518;9.206;2023-07-13T08:44:54;97384.34;;;22.43;41.35
32251;BME280;41295;48.518;9.206;2023-07-13T08:47:01;97383.81;;;22.50;41.95
32251;BME280;41295;48.518;9.206;2023-07-13T08:49:06;97389.25;;;22.48;41.39
32251;BME280;41295;48.518;9.206;2023-07-13T08:51:25;97388.88;;;22.53;40.83
32251;BME280;41295;48.518;9.206;2023-07-13T08:53:34;97384.16;;;22.56;41.12
32251;BME280;41295;48.518;9.206;2023-07-13T08:55:38;97386.31;;;22.63;41.14
32251;BME280;41295;48.518;9.206;2023-07-13T08:57:43;97376.63;;;22.62;41.39
32251;BME280;41295;48.518;9.206;2023-07-13T08:59:47;97378.78;;;22.68;41.47
32251;BME280;41295;48.518;9.206;2023-07-13T09:02:06;97384.72;;;22.81;41.68
32251;BME280;41295;48.518;9.206;2023-07-13T09:04:16;97393.59;;;22.92;41.20
32251;BME280;41295;48.518;9.206;2023-07-13T09:06:28;97387.28;;;22.93;41.48
32251;BME280;41295;48.518;9.206;2023-07-13T09:08:42;97390.38;;;22.98;41.55
32251;BME280;41295;48.518;9.206;2023-07-13T09:10:52;97393.81;;;23.10;40.46
32251;BME280;41295;48.518;9.206;2023-07-13T09:13:04;97395.59;;;23.10;40.55
32251;BME280;41295;48.518;9.206;2023-07-13T09:15:21;97389.59;;;23.17;40.68
32251;BME280;41295;48.518;9.206;2023-07-13T09:17:31;97386.97;;;23.27;40.93
32251;BME280;41295;48.518;9.206;2023-07-13T09:19:36;97382.50;;;23.28;39.96
32251;BME280;41295;48.518;9.206;2023-07-13T09:21:42;97386.69;;;23.30;40.07
32251;BME280;41295;48.518;9.206;2023-07-13T09:23:47;97382.25;;;23.41;39.76
32251;BME280;41295;48.518;9.206;2023-07-13T09:25:54;97389.16;;;23.53;39.49
32251;BME280;41295;48.518;9.206;2023-07-13T09:28:05;97384.16;;;23.70;39.10
32251;BME280;41295;48.518;9.206;2023-07-13T09:30:23;97382.19;;;23.92;37.71
32251;BME280;41295;48.518;9.206;2023-07-13T09:32:28;97372.81;;;23.98;38.16
32251;BME280;41295;48.518;9.206;2023-07-13T09:34:32;97380.19;;;24.14;37.50
32251;BME280;41295;48.518;9.206;2023-07-13T09:36:35;97390.75;;;24.25;37.78
32251;BME280;41295;48.518;9.206;2023-07-13T09:38:38;97381.06;;;24.34;36.53
32251;BME280;41295;48.518;9.206;2023-07-13T09:40:49;97379.78;;;24.38;36.58
32251;BME280;41295;48.518;9.206;2023-07-13T09:42:56;97386.91;;;24.48;36.82
32251;BME280;41295;48.518;9.206;2023-07-13T09:45:02;97382.56;;;24.47;35.38
32251;BME280;41295;48.518;9.206;2023-07-13T09:47:16;97388.88;;;24.56;35.68
32251;BME280;41295;48.518;9.206;2023-07-13T09:49:25;97377.63;;;24.62;36.21
32251;BME280;41295;48.518;9.206;2023-07-13T09:51:28;97372.13;;;24.73;35.42
32251;BME280;41295;48.518;9.206;2023-07-13T09:53:31;97385.28;;;24.85;35.25
32251;BME280;41295;48.518;9.206;2023-07-13T09:55:36;97388.78;;;24.95;35.07
32251;BME280;41295;48.518;9.206;2023-07-13T09:57:46;97389.22;;;25.19;35.37
32251;BME280;41295;48.518;9.206;2023-07-13T09:59:53;97391.63;;;25.40;35.21
32251;BME280;41295;48.518;9.206;2023-07-13T10:01:58;97382.16;;;25.74;36.29
32251;BME280;41295;48.518;9.206;2023-07-13T10:04:01;97392.75;;;26.02;34.15
32251;BME280;41295;48.518;9.206;2023-07-13T10:06:15;97389.19;;;26.12;33.37
32251;BME280;41295;48.518;9.206;2023-07-13T10:08:23;97384.72;;;26.21;33.68
32251;BME280;41295;48.518;9.206;2023-07-13T10:10:29;97391.97;;;26.28;32.66
32251;BME280;41295;48.518;9.206;2023-07-13T10:12:37;97392.44;;;26.24;33.11
32251;BME280;41295;48.518;9.206;2023-07-13T10:14:41;97388.53;;;26.18;33.96
32251;BME280;41295;48.518;9.206;2023-07-13T10:16:58;97389.41;;;26.18;34.26
32251;BME280;41295;48.518;9.206;2023-07-13T10:19:06;97381.84;;;26.14;34.05
32251;BME280;41295;48.518;9.206;2023-07-13T10:21:17;97382.38;;;26.17;33.73
32251;BME280;41295;48.518;9.206;2023-07-13T10:23:37;97383.13;;;26.28;33.00
32251;BME280;41295;48.518;9.206;2023-07-13T10:25:42;97383.81;;;26.30;33.53
32251;BME280;41295;48.518;9.206;2023-07-13T10:27:50;97384.94;;;26.27;33.00
32251;BME280;41295;48.518;9.206;2023-07-13T10:30:00;97381.91;;;26.22;32.97
32251;BME280;41295;48.518;9.206;2023-07-13T10:32:09;97380.75;;;26.25;32.48
32251;BME280;41295;48.518;9.206;2023-07-13T10:34:13;97366.41;;;26.26;31.85
32251;BME280;41295;48.518;9.206;2023-07-13T10:36:27;97374.47;;;26.34;32.09
32251;BME280;41295;48.518;9.206;2023-07-13T10:38:32;97374.72;;;26.41;30.64
32251;BME280;41295;48.518;9.206;2023-07-13T10:40:38;97370.69;;;26.37;31.40
32251;BME280;41295;48.518;9.206;2023-07-13T10:42:45;97374.09;;;26.47;32.01
32251;BME280;41295;48.518;9.206;2023-07-13T10:44:50;97376.00;;;26.55;31.13
32251;BME280;41295;48.518;9.206;2023-07-13T10:46:57;97379.69;;;26.62;31.37
32251;BME280;41295;48.518;9.206;2023-07-13T10:49:04;97371.03;;;26.69;31.15
32251;BME280;41295;48.518;9.206;2023-07-13T10:51:07;97372.41;;;26.73;30.37
32251;BME280;41295;48.518;9.206;2023-07-13T10:53:25;97362.25;;;26.76;31.17
32251;BME280;41295;48.518;9.206;2023-07-13T10:55:38;97366.25;;;26.81;30.92
32251;BME280;41295;48.518;9.206;2023-07-13T10:57:43;97363.13;;;26.85;31.58
32251;BME280;41295;48.518;9.206;2023-07-13T10:59:47;97366.44;;;26.87;31.02